JBU552 KBOS-KMCO
Flight info
| Callsign | JBU552 |
|---|---|
| Flight time | N/A |
| Altitude | 38000 |
| Route | SSOXS7 SSOXS Q167 RIFLE DCT HEADI Q97 SAWED DCT MOXXY Q85 LPERD GTOUT1 |
| Aircraft | A321/M-VGDW/C |
Departure
| Time | N/A |
|---|---|
| Airport | Boston Logan International Airport (KBOS) |
Arrival
| Time | 2026-04-24 03:47 |
|---|---|
| Airport | Orlando International Airport (KMCO) |
| Time | Latitude | Longitude | Altitude | Speed | Heading |
|---|---|---|---|---|---|
| 2026-04-24 03:25 | 29.92747 | -81.23060 | 24582 ft | 377 kts | 178° |
| 2026-04-24 03:25 | 29.90139 | -81.22865 | 24220 ft | 374 kts | 178° |
| 2026-04-24 03:26 | 29.87550 | -81.22671 | 23854 ft | 372 kts | 178° |
| 2026-04-24 03:26 | 29.84974 | -81.22479 | 23457 ft | 370 kts | 178° |
| 2026-04-24 03:26 | 29.82411 | -81.22289 | 23085 ft | 368 kts | 178° |
| 2026-04-24 03:26 | 29.79865 | -81.22101 | 22728 ft | 365 kts | 178° |
| 2026-04-24 03:27 | 29.77338 | -81.21913 | 22372 ft | 363 kts | 178° |
| 2026-04-24 03:27 | 29.74817 | -81.21725 | 22017 ft | 361 kts | 178° |
| 2026-04-24 03:27 | 29.72319 | -81.21538 | 21668 ft | 359 kts | 178° |
| 2026-04-24 03:27 | 29.69862 | -81.21357 | 21333 ft | 357 kts | 178° |
| 2026-04-24 03:28 | 29.67393 | -81.21160 | 20980 ft | 355 kts | 178° |
| 2026-04-24 03:28 | 29.64936 | -81.20949 | 20636 ft | 353 kts | 177° |
| 2026-04-24 03:28 | 29.62495 | -81.20732 | 20301 ft | 351 kts | 177° |
| 2026-04-24 03:28 | 29.60063 | -81.20516 | 19954 ft | 349 kts | 178° |
| 2026-04-24 03:29 | 29.57643 | -81.20305 | 19618 ft | 347 kts | 178° |
| 2026-04-24 03:29 | 29.55243 | -81.20099 | 19281 ft | 345 kts | 178° |
| 2026-04-24 03:29 | 29.52856 | -81.19895 | 18946 ft | 343 kts | 178° |
| 2026-04-24 03:29 | 29.50480 | -81.19690 | 18617 ft | 341 kts | 177° |
| 2026-04-24 03:30 | 29.48119 | -81.19487 | 18195 ft | 341 kts | 177° |
| 2026-04-24 03:30 | 29.45759 | -81.19285 | 17794 ft | 338 kts | 177° |
| 2026-04-24 03:30 | 29.43414 | -81.19083 | 17464 ft | 336 kts | 177° |
| 2026-04-24 03:30 | 29.41088 | -81.18885 | 17140 ft | 334 kts | 177° |
| 2026-04-24 03:31 | 29.38810 | -81.18692 | 16823 ft | 332 kts | 177° |
| 2026-04-24 03:31 | 29.36512 | -81.18497 | 16502 ft | 330 kts | 177° |
| 2026-04-24 03:31 | 29.34228 | -81.18304 | 16188 ft | 328 kts | 177° |
| 2026-04-24 03:31 | 29.31956 | -81.18114 | 15854 ft | 327 kts | 177° |
| 2026-04-24 03:32 | 29.29694 | -81.17925 | 15530 ft | 325 kts | 177° |
| 2026-04-24 03:32 | 29.27446 | -81.17733 | 15211 ft | 323 kts | 177° |
| 2026-04-24 03:32 | 29.25209 | -81.17536 | 14904 ft | 322 kts | 176° |
| 2026-04-24 03:32 | 29.22982 | -81.17334 | 14591 ft | 320 kts | 176° |
| 2026-04-24 03:33 | 29.20763 | -81.17132 | 14277 ft | 318 kts | 176° |
| 2026-04-24 03:33 | 29.18573 | -81.16786 | 13966 ft | 317 kts | 166° |
| 2026-04-24 03:33 | 29.16486 | -81.15970 | 13659 ft | 317 kts | 160° |
| 2026-04-24 03:33 | 29.14423 | -81.15082 | 13355 ft | 316 kts | 160° |
| 2026-04-24 03:34 | 29.12366 | -81.14203 | 13075 ft | 315 kts | 160° |
| 2026-04-24 03:34 | 29.10315 | -81.13329 | 12792 ft | 314 kts | 160° |
| 2026-04-24 03:34 | 29.08273 | -81.12459 | 12504 ft | 312 kts | 160° |
| 2026-04-24 03:34 | 29.06242 | -81.11596 | 12223 ft | 309 kts | 160° |
| 2026-04-24 03:35 | 29.04239 | -81.10746 | 11932 ft | 305 kts | 161° |
| 2026-04-24 03:35 | 29.02249 | -81.09952 | 11657 ft | 302 kts | 162° |
| 2026-04-24 03:35 | 29.00255 | -81.09198 | 11384 ft | 300 kts | 163° |
| 2026-04-24 03:35 | 28.98296 | -81.08472 | 11119 ft | 299 kts | 163° |
| 2026-04-24 03:36 | 28.96264 | -81.08001 | 10748 ft | 300 kts | 175° |
| 2026-04-24 03:36 | 28.94170 | -81.07769 | 10319 ft | 301 kts | 175° |
| 2026-04-24 03:36 | 28.92099 | -81.07535 | 9998 ft | 299 kts | 175° |
| 2026-04-24 03:36 | 28.90024 | -81.07350 | 9592 ft | 297 kts | 182° |
| 2026-04-24 03:37 | 28.87999 | -81.07705 | 9213 ft | 294 kts | 198° |
| 2026-04-24 03:37 | 28.86158 | -81.08655 | 8613 ft | 288 kts | 214° |
| 2026-04-24 03:37 | 28.84521 | -81.09954 | 7845 ft | 287 kts | 216° |
| 2026-04-24 03:37 | 28.82903 | -81.11251 | 7338 ft | 279 kts | 216° |
| 2026-04-24 03:38 | 28.81346 | -81.12496 | 7281 ft | 267 kts | 216° |
| 2026-04-24 03:38 | 28.79846 | -81.13694 | 7186 ft | 261 kts | 216° |
| 2026-04-24 03:38 | 28.78363 | -81.14874 | 6939 ft | 259 kts | 216° |
| 2026-04-24 03:38 | 28.76946 | -81.16085 | 6641 ft | 256 kts | 228° |
| 2026-04-24 03:39 | 28.76088 | -81.17814 | 6312 ft | 251 kts | 255° |
| 2026-04-24 03:39 | 28.75857 | -81.19730 | 5954 ft | 250 kts | 268° |
| 2026-04-24 03:39 | 28.75787 | -81.21712 | 5604 ft | 250 kts | 268° |
| 2026-04-24 03:39 | 28.75729 | -81.23693 | 5273 ft | 250 kts | 268° |
| 2026-04-24 03:40 | 28.75679 | -81.25663 | 5022 ft | 247 kts | 268° |
| 2026-04-24 03:40 | 28.75630 | -81.27588 | 5006 ft | 235 kts | 268° |
| 2026-04-24 03:40 | 28.75350 | -81.29384 | 4989 ft | 230 kts | 250° |
| 2026-04-24 03:40 | 28.74576 | -81.30965 | 4990 ft | 229 kts | 230° |
| 2026-04-24 03:41 | 28.73391 | -81.32168 | 4992 ft | 229 kts | 211° |
| 2026-04-24 03:41 | 28.70536 | -81.32980 | 4968 ft | 229 kts | 179° |
| 2026-04-24 03:41 | 28.68947 | -81.32961 | 4744 ft | 227 kts | 179° |
| 2026-04-24 03:42 | 28.67374 | -81.32942 | 4449 ft | 224 kts | 179° |
| 2026-04-24 03:42 | 28.65824 | -81.32925 | 4154 ft | 221 kts | 179° |
| 2026-04-24 03:42 | 28.64294 | -81.32908 | 3872 ft | 219 kts | 178° |
| 2026-04-24 03:42 | 28.62776 | -81.32892 | 3578 ft | 217 kts | 178° |
| 2026-04-24 03:43 | 28.61286 | -81.32876 | 3323 ft | 209 kts | 178° |
| 2026-04-24 03:43 | 28.59874 | -81.32861 | 3040 ft | 197 kts | 177° |
| 2026-04-24 03:43 | 28.58332 | -81.32845 | 2741 ft | 184 kts | 177° |
| 2026-04-24 03:43 | 28.57478 | -81.32836 | 2578 ft | 177 kts | 177° |
| 2026-04-24 03:44 | 28.56317 | -81.32824 | 2369 ft | 157 kts | 176° |
| 2026-04-24 03:44 | 28.55265 | -81.32812 | 2154 ft | 148 kts | 176° |
| 2026-04-24 03:44 | 28.54264 | -81.32801 | 1969 ft | 144 kts | 176° |
| 2026-04-24 03:44 | 28.53268 | -81.32790 | 1784 ft | 142 kts | 176° |
| 2026-04-24 03:45 | 28.52278 | -81.32779 | 1588 ft | 142 kts | 176° |
| 2026-04-24 03:45 | 28.51290 | -81.32768 | 1394 ft | 142 kts | 176° |
| 2026-04-24 03:45 | 28.50305 | -81.32757 | 1216 ft | 141 kts | 176° |
| 2026-04-24 03:45 | 28.49323 | -81.32746 | 1024 ft | 142 kts | 176° |
| 2026-04-24 03:46 | 28.48329 | -81.32735 | 844 ft | 143 kts | 177° |
| 2026-04-24 03:46 | 28.47335 | -81.32725 | 652 ft | 145 kts | 178° |
| 2026-04-24 03:46 | 28.46328 | -81.32715 | 443 ft | 144 kts | 179° |
| 2026-04-24 03:46 | 28.45330 | -81.32709 | 241 ft | 143 kts | 178° |
| 2026-04-24 03:47 | 28.44351 | -81.32694 | 127 ft | 133 kts | 178° |
| 2026-04-24 03:47 | 28.43559 | -81.32675 | 115 ft | 96 kts | 179° |
| 2026-04-24 03:47 | 28.43014 | -81.32679 | 111 ft | 61 kts | 179° |
| 2026-04-24 03:47 | 28.42686 | -81.32660 | 101 ft | 30 kts | 165° |
| 2026-04-24 03:48 | 28.42560 | -81.32493 | 97 ft | 28 kts | 120° |
| 2026-04-24 03:48 | 28.42471 | -81.32318 | 99 ft | 24 kts | 120° |
| 2026-04-24 03:48 | 28.42389 | -81.32156 | 97 ft | 20 kts | 119° |
| 2026-04-24 03:48 | 28.42312 | -81.32033 | 99 ft | 19 kts | 127° |
| 2026-04-24 03:49 | 28.42264 | -81.31911 | 97 ft | 15 kts | 89° |
| 2026-04-24 03:49 | 28.42259 | -81.31798 | 97 ft | 14 kts | 110° |
| 2026-04-24 03:49 | 28.42170 | -81.31782 | 100 ft | 14 kts | 185° |
| 2026-04-24 03:49 | 28.42070 | -81.31792 | 100 ft | 14 kts | 183° |
| 2026-04-24 03:50 | 28.41973 | -81.31792 | 99 ft | 15 kts | 179° |
| 2026-04-24 03:50 | 28.41866 | -81.31791 | 100 ft | 16 kts | 180° |
| 2026-04-24 03:50 | 28.41764 | -81.31791 | 98 ft | 13 kts | 179° |
| 2026-04-24 03:50 | 28.41690 | -81.31754 | 98 ft | 13 kts | 118° |
| 2026-04-24 03:51 | 28.41649 | -81.31657 | 99 ft | 14 kts | 115° |
| 2026-04-24 03:51 | 28.41607 | -81.31555 | 99 ft | 13 kts | 116° |
| 2026-04-24 03:51 | 28.41542 | -81.31502 | 100 ft | 12 kts | 176° |
| 2026-04-24 03:51 | 28.41455 | -81.31498 | 98 ft | 13 kts | 179° |
| 2026-04-24 03:52 | 28.41392 | -81.31492 | 99 ft | 5 kts | 151° |
| 2026-04-24 03:52 | 28.41384 | -81.31462 | 100 ft | 0 kts | 90° |